Terminal Aerodrome Forecast
Issued by NWS Sioux Falls, SD

Home | Current Version | Previous Version | Text Only | Print | Product List | Glossary On
Versions: 1 2 3 4 5 6 7 8 9 10 11 12 13 14 15 16 17 18 19 20 21 22 23 24 25 26 27 28 29 30
365
FTUS43 KFSD 151734
TAFSUX
TAF
KSUX 151734Z 1518/1618 32018G26KT P6SM FEW022
     FM152100 32016G24KT P6SM SKC
     FM152300 33010KT P6SM SKC
     FM160200 35006KT P6SM SKC
     FM161100 11007KT P6SM BKN200
     FM161700 15013KT P6SM BKN250=

USA.gov is the U.S. government's official web portal to all federal, state and local government web resources and services.